createdAt,value
2022-10-23T08:45:37.870Z,13.77
2022-10-23T09:05:56.885Z,14.14
2022-10-23T09:25:58.916Z,13.42
2022-10-23T09:46:00.671Z,14.28
2022-10-23T10:06:03.699Z,13.49
2022-10-23T10:26:05.873Z,13.34
2022-10-23T10:46:07.834Z,13.76
2022-10-23T11:06:10.139Z,13.75
2022-10-23T11:26:19.681Z,13.49
2022-10-23T11:46:21.711Z,13.00
2022-10-23T12:06:23.889Z,13.49
2022-10-23T12:26:25.995Z,13.78
2022-10-23T12:46:27.737Z,13.84
2022-10-23T13:06:30.031Z,13.91
2022-10-23T13:26:31.558Z,13.47
2022-10-23T13:46:33.627Z,13.31
2022-10-23T14:06:35.668Z,13.46
2022-10-23T14:26:37.859Z,13.72
2022-10-23T14:46:39.876Z,13.96
2022-10-23T15:06:42.281Z,13.75
2022-10-23T15:26:43.824Z,13.81
2022-10-23T15:46:46.412Z,13.63
2022-10-23T16:06:50.322Z,12.93
2022-10-23T16:26:52.473Z,13.04
2022-10-23T16:46:54.012Z,13.22
2022-10-23T17:06:56.364Z,13.62
2022-10-23T17:27:09.680Z,14.11
2022-10-23T17:47:23.311Z,14.14
2022-10-23T18:07:26.477Z,14.11
2022-10-23T18:27:28.748Z,14.13
2022-10-23T18:47:30.311Z,14.15
2022-10-23T19:07:32.712Z,14.26
2022-10-23T19:27:34.530Z,14.48
2022-10-23T19:47:37.859Z,14.53
2022-10-23T20:07:40.019Z,14.49
2022-10-23T20:27:42.650Z,14.30
2022-10-23T20:47:45.572Z,14.43
2022-10-23T21:07:48.449Z,14.40
2022-10-23T21:27:50.222Z,14.33
2022-10-23T21:47:52.644Z,14.00
2022-10-23T22:07:54.136Z,13.92
2022-10-23T22:27:56.830Z,14.16
2022-10-23T22:47:58.503Z,14.13
2022-10-23T23:08:01.037Z,14.25
2022-10-23T23:28:02.831Z,14.41
2022-10-23T23:48:05.344Z,14.36
